Date,TemperatureHighF,TemperatureAvgF,TemperatureLowF,DewpointHighF,DewpointAvgF,DewpointLowF,HumidityHigh,HumidityAvg,HumidityLow,PressureMaxIn,PressureMinIn,WindSpeedMaxMPH,WindSpeedAvgMPH,GustSpeedMaxMPH,PrecipitationSumIn
2013-1-1,50,46,40,43,34,16,94,67,29,30.07,29.89,9,1,20,0.04
2013-1-2,41,38,34,39,30,22,96,74,54,30.18,29.95,7,0,10,0.10
2013-1-3,44,37,34,28,23,19,75,59,38,30.23,30.14,6,0,10,0.00
2013-1-4,42,35,27,23,21,19,74,58,43,30.29,30.19,12,2,16,0.00
2013-1-5,51,40,33,34,23,19,77,52,33,30.38,30.20,8,1,16,0.00
2013-1-6,48,43,34,34,31,29,81,64,56,30.21,30.06,8,1,13,0.00
2013-1-7,48,38,28,30,26,24,88,64,43,30.45,30.17,7,1,13,0.00
2013-1-8,57,36,23,36,28,21,95,76,43,30.44,30.34,3,0,5,0.00
2013-1-9,62,46,30,50,40,28,96,80,57,30.44,30.35,6,0,12,0.00
2013-1-10,60,49,38,40,33,30,79,57,35,30.57,30.43,4,0,10,0.00
2013-1-11,46,42,40,41,38,34,98,89,65,30.44,30.14,1,0,5,0.08
2013-1-12,74,54,40,61,51,39,99,89,64,30.17,30.10,3,0,4,0.00
2013-1-13,72,61,52,62,56,51,99,86,65,30.11,30.01,11,1,21,0.00
2013-1-14,68,57,48,60,55,48,98,94,72,30.25,30.05,7,0,12,0.74
2013-1-15,48,42,37,48,41,37,98,97,96,30.28,30.10,1,0,4,2.31
2013-1-16,48,42,37,46,41,37,99,97,90,30.11,29.93,2,0,4,0.46
2013-1-17,47,39,32,46,37,32,99,95,87,30.16,29.99,4,0,8,0.61
2013-1-18,40,32,26,32,27,24,96,81,53,30.49,30.16,1,0,2,0.34
2013-1-19,52,33,21,36,27,20,97,81,33,30.44,30.07,6,0,13,0.27
2013-1-20,53,45,33,34,28,20,85,52,32,30.08,29.99,12,2,20,0.04
2013-1-21,51,39,28,26,20,8,84,50,29,30.08,29.85,16,3,31,0.00
2013-1-22,30,23,18,9,1,-2,46,37,28,30.24,29.97,12,3,21,0.00
2013-1-23,33,25,18,19,7,-2,68,47,28,30.30,29.99,10,1,20,0.00
2013-1-24,37,26,16,24,10,1,71,51,32,30.49,29.94,13,3,28,0.00
2013-1-25,23,20,16,20,14,5,90,76,49,30.48,30.02,6,0,10,0.00
2013-1-26,40,33,23,27,24,20,92,71,55,30.41,30.01,8,1,13,0.10
2013-1-27,37,29,18,26,22,15,90,77,63,30.56,30.41,5,0,10,0.00
2013-1-28,59,42,31,49,37,26,96,84,60,30.43,30.16,6,0,13,0.09
2013-1-29,76,62,52,56,51,47,87,68,45,30.18,30.00,8,1,13,0.00
2013-1-30,67,62,52,62,58,46,99,87,75,30.00,29.36,15,3,28,3.03
2013-1-31,55,38,34,47,25,17,83,59,47,29.92,29.40,17,5,29,0.01
2013-2-1,40,26,20,32,12,4,90,53,39,30.34,29.77,16,4,28,0.00
2013-2-2,36,25,14,28,17,7,95,73,47,30.34,29.98,4,0,6,0.00
2013-2-3,40,34,28,28,24,20,95,67,58,29.98,29.82,16,3,34,0.00
2013-2-4,40,32,25,26,20,15,75,61,50,30.10,29.91,8,1,18,0.00
2013-2-5,51,42,31,37,32,24,83,68,53,29.95,29.86,11,1,18,0.00
2013-2-6,55,44,33,35,29,24,86,57,32,30.30,29.93,7,1,13,0.00
2013-2-7,39,36,31,33,30,26,96,81,73,30.37,30.10,3,0,6,0.00
2013-2-8,52,38,32,41,32,25,97,81,52,30.10,29.82,10,2,21,0.51
2013-2-9,51,38,28,25,19,14,77,49,25,30.35,30.05,12,2,21,0.00
2013-2-10,50,36,23,36,24,19,93,64,35,30.45,30.18,5,0,12,0.14
2013-2-11,62,47,37,52,39,28,98,77,38,30.19,29.86,18,3,32,0.05
2013-2-12,58,49,41,29,25,22,55,40,26,30.06,29.91,13,2,30,0.00
2013-2-13,44,42,39,42,36,27,96,78,51,29.94,29.61,6,0,14,0.07
2013-2-14,55,41,33,32,28,24,81,60,31,30.04,29.82,8,1,17,0.00
2013-2-15,59,41,28,41,32,26,94,72,37,30.07,29.90,10,1,17,0.02
2013-2-16,38,34,27,31,21,14,74,60,45,30.01,29.85,6,1,12,0.00
2013-2-17,31,24,19,18,8,2,84,50,34,30.21,29.90,12,3,21,0.00
2013-2-18,56,36,16,26,17,7,77,49,29,30.33,30.13,7,1,13,0.00
2013-2-19,54,44,38,41,28,14,91,55,30,30.13,29.78,18,3,32,0.04
2013-2-20,45,36,30,17,13,9,49,39,25,30.15,29.94,14,4,27,0.00
2013-2-21,52,38,26,24,16,12,59,43,25,30.27,30.10,7,1,16,0.00
2013-2-22,39,34,30,31,28,19,90,79,44,30.32,30.13,3,0,6,0.04
2013-2-23,55,41,33,45,37,31,95,87,67,30.14,29.81,2,0,4,0.02
2013-2-24,56,46,38,42,30,22,96,57,31,30.07,29.80,9,2,17,0.00
2013-2-25,44,34,27,27,24,21,85,66,48,30.19,30.07,3,0,6,0.00
2013-2-26,39,34,28,38,31,23,97,88,68,30.16,29.61,4,0,8,1.38
2013-2-27,50,44,38,40,35,32,98,72,55,29.76,29.58,13,2,20,0.00
2013-2-28,43,38,36,34,28,25,78,66,52,29.83,29.69,10,3,22,0.00
2013-3-1,40,38,36,28,26,24,71,63,57,29.91,29.80,8,2,15,0.00
2013-3-2,37,34,30,25,21,18,66,61,55,29.92,29.84,8,2,13,0.00
2013-3-3,34,30,27,20,17,13,66,59,51,29.97,29.88,10,3,20,0.00
2013-3-4,50,35,26,20,14,11,64,45,23,30.08,29.96,9,2,17,0.00
2013-3-5,51,38,32,37,28,18,97,69,41,30.06,29.64,3,0,6,0.56
2013-3-6,41,36,32,32,29,27,97,78,63,30.08,29.60,11,2,21,0.63
2013-3-7,44,38,36,30,28,25,73,65,52,30.25,30.07,10,3,20,0.00
2013-3-8,50,41,35,28,26,22,70,54,39,30.34,30.20,10,2,16,0.00
2013-3-9,64,43,27,34,29,24,90,61,30,30.37,30.24,4,0,6,0.00
2013-3-10,67,48,31,37,32,27,88,58,31,30.31,30.18,4,0,7,0.00
2013-3-11,59,51,41,52,38,27,90,62,40,30.20,29.87,6,0,14,0.04
2013-3-12,56,51,41,54,42,30,98,74,46,30.00,29.73,14,2,23,0.74
2013-3-13,44,39,31,31,25,16,76,58,39,30.15,29.98,13,3,27,0.00
2013-3-14,48,37,28,20,17,14,64,46,27,30.24,30.12,10,3,20,0.00
2013-3-15,63,48,30,37,28,15,68,46,37,30.16,29.86,9,2,18,0.00
2013-3-16,76,58,41,54,45,35,94,64,38,29.86,29.60,16,2,27,0.06
2013-3-17,58,44,36,50,42,35,96,91,74,30.20,29.86,2,0,4,0.60
2013-3-18,36,34,32,35,33,31,97,96,95,30.21,29.88,4,0,6,0.30
2013-3-19,59,45,33,44,24,0,99,55,12,30.04,29.79,16,4,29,0.00
2013-3-20,53,43,31,27,13,4,60,31,18,30.07,29.78,12,2,25,0.00
2013-3-21,40,31,26,28,15,9,69,52,37,29.98,29.77,12,3,22,0.00
2013-3-22,50,34,24,20,14,9,60,44,25,30.04,29.93,9,2,18,0.00
2013-3-23,57,41,28,30,24,17,71,52,30,30.05,29.90,6,0,10,0.00
2013-3-24,41,35,31,32,29,23,95,80,49,29.96,29.59,2,0,6,0.01
2013-3-25,42,35,31,32,28,23,96,77,50,29.77,29.52,11,2,22,0.72
2013-3-26,44,39,36,30,27,25,69,62,49,30.10,29.77,9,2,20,0.15
2013-3-27,46,38,34,28,25,22,69,59,45,30.22,30.10,8,2,16,0.00
2013-3-28,51,42,36,29,25,21,74,53,38,30.28,30.19,9,2,14,0.00
2013-3-29,60,44,31,29,26,24,80,52,28,30.31,30.16,8,1,15,0.00
2013-3-30,66,48,30,34,30,27,87,55,27,30.26,30.07,6,0,9,0.00
2013-3-31,61,49,42,52,43,32,97,80,56,30.08,29.78,10,0,16,0.21
2013-4-1,61,53,42,46,39,28,72,61,46,30.03,29.84,13,3,23,0.00
2013-4-2,54,42,31,29,21,13,80,46,20,30.17,30.03,12,2,20,0.00
2013-4-3,56,44,31,22,16,12,60,35,19,30.34,30.17,8,1,13,0.00
2013-4-4,42,35,32,33,24,16,98,65,40,30.39,30.02,4,0,7,0.02
2013-4-5,64,46,33,45,35,31,99,71,31,30.05,29.91,7,1,14,0.49
2013-4-6,66,50,33,38,33,29,88,55,33,30.26,30.05,4,1,9,0.00
2013-4-7,73,57,41,48,40,28,80,54,35,30.23,30.05,10,1,18,0.00
2013-4-8,80,66,49,53,48,44,83,54,32,30.14,30.01,10,2,23,0.00
2013-4-9,87,73,55,56,53,49,81,51,30,30.18,30.04,9,2,20,0.00
2013-4-10,91,77,64,59,56,49,72,49,26,30.10,29.91,9,2,17,0.00
2013-4-11,86,76,66,62,57,50,72,53,35,29.95,29.74,8,2,20,0.00
2013-4-12,77,67,59,65,55,38,97,70,31,29.82,29.66,10,2,25,0.89
2013-4-13,75,62,52,40,36,31,58,40,23,30.02,29.81,10,2,17,0.00
2013-4-14,80,64,46,47,39,34,73,43,23,30.11,30.00,7,1,14,0.00
2013-4-15,66,57,52,55,53,42,97,87,44,30.27,30.07,7,0,15,0.38
2013-4-16,80,65,56,64,58,54,98,80,53,30.32,30.18,4,0,8,0.00
2013-4-17,83,68,60,63,60,57,91,76,49,30.24,30.14,4,0,6,0.00
2013-4-18,80,69,60,64,59,55,94,73,47,30.18,30.00,6,1,12,0.00
2013-4-19,71,65,50,65,59,39,92,79,65,30.00,29.67,15,3,26,0.84
2013-4-20,62,51,42,39,31,25,70,47,26,30.32,29.88,12,2,24,0.00
2013-4-21,61,48,35,37,33,29,85,59,37,30.52,30.32,4,0,7,0.00
2013-4-22,64,49,34,37,32,23,91,57,23,30.50,30.30,5,0,6,0.00
2013-4-23,73,58,47,51,44,37,78,63,43,30.33,30.10,4,0,8,0.00
2013-4-24,78,62,46,57,51,44,96,71,42,30.12,29.91,9,1,20,0.00
2013-4-25,69,54,40,46,31,14,75,47,12,30.33,30.08,8,1,14,0.00
2013-4-26,71,54,37,43,36,30,85,53,30,30.47,30.33,6,0,9,0.00
2013-4-27,70,58,49,52,46,41,83,65,43,30.38,30.26,4,0,10,0.00
2013-4-28,58,54,52,54,51,48,96,90,70,30.27,30.05,5,0,12,0.39
2013-4-29,70,57,50,60,54,50,98,90,69,30.13,30.00,4,0,7,0.09
2013-4-30,72,61,56,60,56,54,96,85,61,30.25,30.06,3,0,5,0.00
2013-5-1,72,60,55,56,54,48,96,81,53,30.39,30.25,2,0,5,0.00
2013-5-2,72,60,51,56,48,41,85,65,53,30.39,30.29,5,0,9,0.00
2013-5-3,66,56,48,52,48,43,95,76,57,30.35,30.23,3,0,6,0.00
2013-5-4,65,54,46,50,45,41,83,74,53,30.27,30.14,3,0,6,0.00
2013-5-5,55,52,44,51,44,34,95,77,62,30.17,30.04,3,0,6,0.13
2013-5-6,56,54,51,56,53,50,99,97,96,30.06,29.90,4,0,7,1.65
2013-5-7,64,56,50,58,54,50,99,96,73,29.97,29.90,3,0,6,1.01
2013-5-8,63,53,49,57,52,48,99,96,78,30.03,29.95,3,0,4,0.46
2013-5-9,80,63,46,59,53,46,100,73,40,30.08,30.00,6,1,14,0.01
2013-5-10,83,66,53,65,58,52,98,79,44,30.09,29.94,8,1,17,0.27
2013-5-11,79,66,59,65,60,55,99,84,54,29.97,29.80,8,1,14,0.09
2013-5-12,66,58,45,56,41,32,77,55,32,30.08,29.85,11,2,17,0.00
2013-5-13,63,50,39,39,34,27,88,57,30,30.21,30.08,9,1,20,0.00
2013-5-14,72,54,35,48,39,32,94,63,28,30.25,30.03,7,0,10,0.00
2013-5-15,91,72,49,61,54,46,91,60,31,30.05,29.89,8,1,18,0.00
2013-5-16,84,76,66,61,57,51,76,52,42,30.03,29.92,9,2,20,0.01
2013-5-17,86,70,60,65,61,57,95,75,43,30.16,30.02,4,0,7,0.05
2013-5-18,68,65,62,64,63,62,98,95,86,30.21,30.13,2,0,4,0.52
2013-5-19,69,65,62,68,64,62,100,98,93,30.18,30.08,3,0,4,1.02
2013-5-20,77,69,64,73,67,64,100,96,77,30.15,30.04,2,0,4,0.22
2013-5-21,90,75,65,72,68,65,100,81,47,30.08,29.95,6,0,9,0.00
2013-5-22,87,71,61,74,65,59,97,84,59,30.02,29.92,8,1,20,0.18
2013-5-23,84,69,62,70,64,59,99,86,50,29.97,29.82,7,0,15,0.06
2013-5-24,66,60,52,60,46,37,80,63,40,30.21,29.87,10,2,21,0.00
2013-5-25,72,57,47,39,33,23,65,43,22,30.29,30.19,8,1,14,0.00
2013-5-26,77,62,50,46,42,37,77,50,26,30.28,30.18,6,0,12,0.00
2013-5-27,80,64,50,61,51,42,84,64,41,30.32,30.17,5,0,8,0.00
2013-5-28,87,71,55,68,60,54,97,72,39,30.24,30.13,8,1,16,0.00
2013-5-29,90,78,62,69,63,58,95,63,36,30.24,30.16,5,1,9,0.00
2013-5-30,90,75,59,71,64,58,96,71,47,30.28,30.19,4,0,8,0.00
2013-5-31,89,74,60,70,64,58,96,73,50,30.24,30.12,8,1,14,0.00
2013-6-1,88,76,62,72,65,60,94,71,47,30.14,30.02,8,1,15,0.00
2013-6-2,77,72,67,70,67,63,98,84,66,30.04,29.94,6,0,10,1.25
2013-6-3,83,71,64,69,64,59,99,81,53,30.03,29.90,7,0,14,0.02
2013-6-4,82,68,56,66,60,54,97,77,46,30.16,30.03,4,0,10,0.00
2013-6-5,73,66,59,66,62,56,97,87,72,30.19,30.08,3,0,6,0.01
2013-6-6,65,63,60,64,62,60,99,98,96,30.08,29.86,2,0,4,2.20
2013-6-7,75,68,64,71,66,60,100,94,78,29.88,29.67,5,0,9,0.62
2013-6-8,87,71,60,68,62,58,98,78,43,30.14,29.86,4,0,6,0.13
2013-6-9,86,73,64,73,68,63,98,84,59,30.21,30.08,6,0,13,0.29
2013-6-10,82,71,64,72,68,63,99,92,69,30.12,29.88,8,0,15,0.39
2013-6-11,83,73,63,67,64,62,99,76,55,30.00,29.91,9,2,16,0.15
2013-6-12,92,78,64,74,69,62,96,75,52,30.01,29.91,6,1,12,0.00
2013-6-13,90,81,73,72,70,68,90,70,51,29.91,29.65,14,3,54,0.00
2013-6-16,85,73,58,71,64,57,97,76,51,30.11,30.02,5,1,11,0.59
2013-6-17,88,74,67,74,69,58,99,85,57,30.08,29.96,6,0,11,0.05
2013-6-18,76,69,64,71,67,62,99,92,74,30.00,29.87,3,0,6,0.36
2013-6-19,68,63,60,66,62,59,99,97,90,30.19,29.96,2,0,4,0.12
2013-6-20,82,71,64,70,66,63,99,87,65,30.30,30.19,4,0,7,0.00
2013-6-21,88,73,61,70,65,59,98,77,52,30.33,30.25,4,0,6,0.00
2013-6-22,88,73,58,70,64,56,92,75,46,30.32,30.18,3,0,5,0.00
2013-6-23,92,77,65,73,68,64,98,77,43,30.26,30.15,5,0,9,0.00
2013-6-24,88,74,66,77,70,65,98,87,61,30.24,30.13,4,0,9,0.41
2013-6-25,90,76,65,75,69,65,100,81,53,30.16,30.03,5,0,9,0.01
2013-6-26,94,73,66,74,68,65,99,87,49,30.05,29.94,15,0,22,0.23
2013-6-27,84,73,66,74,69,66,100,87,62,29.96,29.76,8,1,14,0.03
2013-6-28,90,79,69,72,68,64,95,70,45,29.79,29.59,10,2,17,0.00
2013-6-29,88,75,64,71,67,62,98,77,49,29.77,29.64,6,1,12,0.23
2013-6-30,88,74,66,75,70,65,99,89,61,29.90,29.75,4,0,9,0.39
2013-7-1,84,74,68,73,70,67,99,87,65,30.02,29.87,6,0,12,0.02
2013-7-2,76,72,69,72,70,68,98,93,82,30.21,30.01,4,0,9,2.00
2013-7-3,75,71,69,74,70,68,100,99,96,30.27,30.17,4,0,8,2.10
2013-7-4,89,74,69,77,72,69,100,92,63,30.31,30.23,4,0,8,0.95
2013-7-5,86,77,69,76,72,68,99,84,67,30.30,30.22,7,1,12,0.02
2013-7-6,90,77,68,74,71,67,99,81,55,30.28,30.17,6,0,10,0.03
2013-7-7,86,73,69,77,71,67,99,92,69,30.22,30.12,8,0,12,0.42
2013-7-8,92,76,66,74,69,66,100,82,50,30.23,30.14,4,0,8,0.01
2013-7-9,92,78,69,76,71,67,98,80,57,30.20,30.10,4,0,6,0.00
2013-7-10,90,74,69,79,71,68,99,92,67,30.13,30.00,6,0,9,2.16
2013-7-11,85,74,69,76,72,68,100,93,66,30.01,29.93,5,0,9,0.33
2013-7-12,79,70,66,69,67,66,99,90,69,30.12,29.95,2,0,4,0.03
2013-7-13,79,71,66,73,69,65,99,93,78,30.25,30.11,2,0,4,0.39
2013-7-14,88,76,70,76,72,69,99,87,61,30.38,30.25,3,0,7,0.08
2013-7-15,94,74,68,75,70,68,99,88,48,30.40,30.31,2,0,5,0.00
2013-7-16,98,78,66,77,71,66,98,80,41,30.36,30.26,4,0,7,0.03
2013-7-17,96,80,71,79,74,70,99,82,54,30.33,30.20,4,0,5,0.00
2013-7-18,97,81,69,79,74,69,99,80,50,30.24,30.11,4,0,6,0.00
2013-7-19,97,80,69,78,73,69,98,80,46,30.16,30.01,5,0,10,0.00
2013-7-20,94,80,71,77,72,70,96,80,49,30.05,29.94,6,0,9,0.00
2013-7-21,89,77,69,77,72,68,98,84,63,30.03,29.97,8,0,12,0.00
2013-7-22,92,77,70,76,72,69,98,86,53,30.02,29.85,8,0,14,0.33
2013-7-23,90,78,71,73,70,67,98,76,54,29.87,29.78,7,1,13,0.01
2013-7-24,88,78,70,71,68,64,92,72,49,29.96,29.79,7,1,12,0.00
2013-7-25,85,74,65,68,65,60,92,75,54,30.10,29.95,6,0,8,0.00
2013-7-26,86,72,62,72,66,60,96,81,60,30.16,30.06,3,0,6,0.00
2013-7-27,73,69,67,71,67,66,99,93,80,30.10,29.98,4,0,9,0.36
2013-7-28,88,74,66,73,68,65,99,83,55,30.06,29.96,3,0,5,0.00
2013-7-29,85,70,59,65,60,55,95,71,41,30.26,30.07,5,0,9,0.00
2013-7-30,86,70,56,67,60,54,94,75,47,30.31,30.20,5,0,7,0.00
2013-7-31,76,68,65,69,65,63,98,90,70,30.21,30.06,2,0,4,0.11
2013-8-1,87,73,65,72,67,64,99,84,56,30.06,29.91,4,0,9,0.01
2013-8-2,85,73,62,69,63,59,98,74,45,30.09,29.98,6,1,9,0.00
2013-8-3,88,72,62,69,64,59,92,76,48,30.07,29.98,5,0,8,0.00
2013-8-4,86,73,65,66,61,55,96,69,38,30.12,29.98,5,0,12,0.00
2013-8-5,81,70,59,66,61,55,89,74,53,30.16,30.05,5,0,7,0.00
2013-8-6,85,73,64,72,67,62,94,82,61,30.08,30.01,4,0,7,0.15
2013-8-7,82,73,68,72,69,66,95,88,71,30.12,30.06,6,0,10,0.01
2013-8-8,83,73,70,75,70,68,96,90,72,30.09,30.05,3,0,5,1.05
2013-8-9,91,78,69,78,72,68,97,84,56,30.07,30.00,6,0,12,0.08
2013-8-10,89,78,70,73,70,68,94,77,54,30.14,30.07,8,1,12,0.00
2013-8-11,90,76,69,76,70,68,96,82,55,30.17,30.07,5,0,9,0.33
2013-8-12,92,76,67,73,69,64,97,81,46,30.11,30.00,4,0,7,0.08
2013-8-13,82,72,68,73,68,63,96,87,66,30.01,29.85,3,0,8,0.49
2013-8-14,79,69,58,63,55,49,85,64,38,30.18,29.92,5,1,9,0.00
2013-8-15,78,64,52,58,53,49,90,71,45,30.23,30.13,5,0,6,0.00
2013-8-16,77,63,51,60,55,49,95,78,51,30.24,30.16,4,0,7,0.00
2013-8-17,71,61,55,61,57,53,95,87,62,30.28,30.22,2,0,4,0.42
2013-8-18,73,65,61,66,62,60,96,92,78,30.28,30.20,2,0,4,1.30
2013-8-19,77,68,63,70,65,62,96,91,78,30.25,30.12,2,0,4,0.15
2013-8-20,84,72,64,72,67,62,97,86,61,30.25,30.15,4,0,7,0.01
2013-8-21,86,73,65,75,69,64,96,87,68,30.27,30.15,4,0,6,0.19
2013-8-22,87,73,62,72,67,61,97,81,55,30.19,30.06,7,0,10,0.01
2013-8-23,88,72,63,70,66,61,95,83,54,30.19,30.00,4,0,8,0.00
2013-8-24,83,68,57,64,59,56,96,76,43,30.37,30.18,3,0,5,0.00
2013-8-25,84,68,56,63,58,54,95,75,41,30.45,30.33,4,0,7,0.00
2013-8-26,87,69,55,68,60,53,96,76,42,30.38,30.14,5,0,6,0.00
2013-8-27,85,74,62,71,66,60,95,77,57,30.14,30.01,6,1,12,0.00
2013-8-28,84,75,68,73,69,66,95,83,65,30.05,29.90,9,0,16,0.06
2013-8-29,89,78,70,74,70,67,94,77,55,30.09,29.90,4,0,8,0.06
2013-8-30,86,74,65,72,68,64,96,83,60,30.11,29.97,4,0,8,0.00
2013-8-31,90,73,66,73,68,64,96,85,54,30.00,29.90,5,0,10,0.49
2013-9-1,88,73,63,74,68,62,97,84,55,29.94,29.84,5,0,8,0.01
2013-9-2,88,76,65,74,67,63,96,78,52,29.94,29.84,5,1,9,0.00
2013-9-3,88,76,64,70,65,59,93,72,43,30.04,29.85,6,1,10,0.00
2013-9-4,86,69,56,67,59,54,96,74,46,30.15,30.04,5,0,8,0.00
2013-9-5,88,70,56,61,58,54,95,69,35,30.19,30.10,6,1,12,0.00
2013-9-6,81,66,59,61,58,55,94,77,47,30.26,30.17,4,0,10,0.00
2013-9-7,84,67,54,68,60,52,95,80,56,30.19,30.01,4,0,7,0.00
2013-9-8,87,71,59,72,63,56,93,77,51,30.06,29.96,5,0,7,0.00
2013-9-9,82,71,64,70,65,62,94,84,64,30.23,30.06,3,0,6,0.00
2013-9-10,91,73,63,76,68,62,96,85,51,30.27,30.19,3,0,6,0.28
2013-9-11,90,76,65,73,69,64,97,82,52,30.25,30.11,5,0,8,0.00
2013-9-12,88,75,67,72,68,63,95,79,55,30.11,29.87,6,1,10,0.02
2013-9-13,78,70,58,64,54,46,88,60,34,30.00,29.83,5,1,12,0.00
2013-9-14,77,60,48,55,49,45,92,69,36,30.19,29.99,5,0,8,0.00
2013-9-15,77,61,47,62,54,45,95,79,56,30.27,30.14,4,0,8,0.00
2013-9-16,78,64,56,63,58,53,96,80,54,30.28,30.14,6,0,9,0.00
2013-9-17,74,58,49,56,52,46,94,79,46,30.41,30.27,5,0,7,0.00
2013-9-18,70,58,48,58,52,46,94,82,62,30.35,30.21,4,0,7,0.00
2013-9-19,73,64,60,65,60,56,93,86,73,30.23,30.11,3,0,4,0.00
2013-9-20,70,65,62,67,63,61,99,94,89,30.12,29.99,2,0,4,0.69
2013-9-21,68,64,58,68,64,57,99,98,92,29.99,29.73,6,0,10,0.45
2013-9-22,76,62,53,60,55,52,100,82,51,29.97,29.79,4,0,6,0.01
2013-9-23,72,59,52,61,54,50,97,85,63,30.10,29.97,3,0,7,0.00
2013-9-24,78,62,53,64,57,52,98,86,59,30.13,29.96,3,0,5,0.00
2013-9-25,69,60,54,62,58,53,99,93,76,29.99,29.91,3,0,6,0.01
2013-9-26,77,64,57,61,58,54,99,82,51,30.10,29.94,3,0,5,0.01
2013-9-27,76,61,50,60,54,49,99,81,52,30.24,30.10,3,0,5,0.00
2013-9-28,69,60,53,58,55,51,96,85,63,30.31,30.23,3,0,4,0.00
2013-9-29,73,58,47,58,52,47,99,83,53,30.23,30.07,5,0,6,0.00
2013-9-30,78,62,51,63,56,50,97,81,49,30.12,30.01,4,0,5,0.00
2013-10-1,81,64,52,64,58,52,99,82,47,30.15,30.06,5,0,9,0.00
2013-10-2,84,66,52,65,59,52,99,80,47,30.17,30.08,6,0,10,0.00
2013-10-3,82,66,56,68,61,55,99,84,56,30.18,30.09,3,0,5,0.00
2013-10-4,86,69,56,69,63,56,100,83,50,30.17,30.09,4,0,5,0.00
2013-10-5,87,70,58,70,64,58,99,82,51,30.17,30.06,3,0,5,0.00
2013-10-6,83,70,58,68,63,58,99,82,55,30.08,29.92,8,1,15,0.00
2013-10-7,70,64,50,67,58,48,99,83,61,30.11,29.81,7,1,17,2.08
2013-10-8,69,55,46,53,48,45,95,77,49,30.28,30.10,3,0,6,0.00
2013-10-9,68,55,47,50,48,46,95,77,51,30.31,30.20,4,0,8,0.00
2013-10-10,66,57,50,61,54,46,98,92,74,30.20,30.01,4,0,6,0.23
2013-10-11,73,64,59,63,59,55,94,84,70,30.02,29.94,3,0,5,0.00
2013-10-12,67,62,59,63,60,57,98,93,85,30.15,30.01,3,0,4,0.06
2013-10-13,65,62,59,62,60,59,99,96,88,30.29,30.15,3,0,4,0.12
2013-10-14,72,60,56,63,58,55,99,94,74,30.32,30.21,3,0,4,0.41
2013-10-15,71,58,50,58,54,50,100,88,58,30.27,30.11,4,0,4,0.00
2013-10-16,71,60,50,62,56,49,99,89,69,30.12,29.96,3,0,5,0.00
2013-10-17,67,62,58,64,60,53,99,94,79,29.98,29.81,7,0,12,0.07
2013-10-18,68,56,48,53,47,42,96,71,47,30.07,29.94,5,1,9,0.00
2013-10-19,63,54,47,58,50,45,98,89,70,30.01,29.82,8,0,13,0.00
2013-10-20,67,51,38,45,40,35,94,68,41,30.12,29.94,6,0,12,0.00
2013-10-21,68,50,35,53,44,34,99,83,55,30.16,29.98,3,0,6,0.00
2013-10-22,66,55,48,51,49,47,97,80,54,29.98,29.82,6,0,12,0.00
2013-10-23,58,49,42,50,42,31,99,78,51,29.99,29.71,10,2,20,0.06
2013-10-24,48,42,34,34,32,30,89,69,54,30.18,29.99,9,1,15,0.00
2013-10-25,49,40,32,31,29,27,87,67,45,30.35,30.18,5,1,9,0.00
2013-10-26,60,42,25,36,29,24,96,66,29,30.34,30.01,9,1,16,0.00
2013-10-27,67,53,42,42,39,34,88,60,38,30.12,30.02,8,1,13,0.00
2013-10-28,65,50,38,53,46,37,98,85,59,30.27,30.12,2,0,4,0.00
2013-10-29,69,58,51,55,52,50,98,82,55,30.36,30.26,4,0,9,0.00
2013-10-30,73,60,52,61,55,51,98,86,63,30.30,30.15,8,0,12,0.08
2013-10-31,70,62,56,61,57,55,99,86,63,30.19,29.80,8,1,17,0.00
2013-11-1,76,68,56,62,57,44,92,69,41,29.80,29.63,14,2,32,0.03
2013-11-2,65,58,50,48,40,33,74,53,35,29.96,29.71,10,2,17,0.00
2013-11-3,58,49,36,37,35,32,87,60,40,30.40,29.97,5,1,12,0.00
2013-11-4,52,41,30,34,30,28,95,69,46,30.57,30.39,4,0,6,0.00
2013-11-5,52,44,33,43,34,28,84,70,55,30.60,30.46,2,0,4,0.00
2013-11-6,70,54,45,53,48,43,95,80,53,30.46,30.10,4,0,8,0.00
2013-11-7,60,50,42,54,42,27,98,76,51,30.15,29.97,12,2,18,0.00
2013-11-8,51,42,30,29,27,25,82,56,37,30.32,30.15,9,1,16,0.00
2013-11-9,57,41,27,32,28,24,92,64,37,30.34,30.11,5,0,8,0.00
2013-11-10,64,54,39,37,31,25,61,43,23,30.28,30.06,13,3,29,0.00
2013-11-11,60,45,34,33,28,26,73,53,32,30.28,30.08,2,0,8,0.00
2013-11-12,57,43,29,38,25,15,65,51,29,30.44,30.00,9,2,16,0.00
2013-11-13,45,34,26,19,16,14,70,50,30,30.51,30.41,7,1,12,0.00
2013-11-14,62,39,22,24,19,15,83,52,18,30.42,30.26,6,1,10,0.00
2013-11-15,62,44,27,49,32,21,98,68,30,30.30,30.17,4,0,5,0.42
2013-11-16,53,50,48,52,50,47,99,97,93,30.29,30.21,2,0,2,0.07
2013-11-17,61,56,52,59,55,52,100,96,90,30.23,29.81,5,1,10,0.09
2013-11-18,64,58,48,60,39,26,98,52,28,30.01,29.77,13,3,26,0.11
2013-11-19,51,42,33,29,27,25,82,57,40,30.32,30.00,9,1,20,0.00
2013-11-20,48,37,31,30,27,24,88,68,43,30.48,30.32,4,0,5,0.00
2013-11-21,52,44,37,42,37,28,82,76,68,30.52,30.39,2,0,4,0.00
2013-11-22,65,56,45,56,49,41,88,79,65,30.40,30.08,4,0,8,0.00
2013-11-23,59,47,32,52,32,14,78,58,28,30.23,30.08,11,3,18,0.00
2013-11-24,33,26,21,18,6,1,59,43,27,30.50,30.23,8,2,15,0.00
2013-11-25,37,28,17,18,12,7,75,53,36,30.50,30.32,3,0,7,0.00
2013-11-26,39,34,31,39,31,16,99,93,49,30.33,29.61,8,0,14,3.05
2013-11-27,45,34,26,42,27,13,99,75,57,30.13,29.56,11,3,20,0.04
2013-11-28,44,30,24,25,18,13,86,62,41,30.42,30.13,8,1,15,0.00
2013-11-29,48,33,23,26,23,19,89,67,41,30.65,30.42,4,0,6,0.00
2013-11-30,42,29,21,27,22,18,92,77,53,30.65,30.34,3,0,6,0.00
2013-12-1,57,35,20,32,25,19,95,72,31,30.34,30.01,8,0,13,0.00
2013-12-2,53,40,28,39,34,27,96,78,58,30.01,29.82,1,0,2,0.00
2013-12-4,56,56,55,53,53,52,91,90,88,30.06,30.04,2,0,10,0.00
2013-12-5,66,57,46,61,54,45,99,93,79,30.09,29.97,4,0,6,0.03
2013-12-6,73,65,51,68,62,49,100,88,74,30.06,29.88,9,1,17,0.63
2013-12-7,51,42,38,49,37,31,97,80,70,30.47,30.06,7,1,13,0.07
2013-12-8,38,31,28,34,28,25,97,89,72,30.47,30.23,2,0,4,0.05
2013-12-9,51,39,31,47,36,30,99,92,78,30.24,30.02,7,0,12,0.07
2013-12-10,41,37,32,39,31,19,98,81,59,30.26,29.95,11,1,20,0.43
2013-12-11,50,36,28,26,20,15,73,54,33,30.38,30.23,9,1,14,0.00
2013-12-12,37,32,28,21,13,6,63,47,30,30.39,30.26,9,2,16,0.00
2013-12-13,49,37,30,27,18,11,73,46,31,30.32,30.21,10,2,17,0.00
2013-12-14,37,35,34,34,32,25,98,91,66,30.28,29.73,4,0,5,0.34
2013-12-15,44,38,34,41,31,26,99,77,63,30.02,29.68,10,3,21,0.00
2013-12-16,49,38,32,33,30,26,90,71,52,30.12,30.00,7,1,13,0.00
2013-12-17,55,41,28,38,32,25,95,73,45,30.08,29.88,12,2,25,0.08
2013-12-18,46,35,28,25,20,15,78,56,32,30.23,29.96,12,2,24,0.00
2013-12-19,68,45,27,32,26,20,82,53,23,30.22,30.13,9,1,13,0.00
2013-12-20,62,48,38,40,34,28,77,59,37,30.16,30.05,4,0,8,0.00
2013-12-21,69,56,41,61,49,37,88,79,66,30.08,29.94,10,1,20,0.00
2013-12-22,69,62,57,63,59,54,99,90,70,30.07,29.92,10,1,20,0.64
2013-12-23,62,51,35,60,46,27,100,84,68,30.22,29.97,8,2,14,0.76
2013-12-24,38,31,22,27,20,9,81,63,46,30.44,30.19,12,2,20,0.00
2013-12-25,37,25,14,16,12,10,89,62,35,30.50,30.32,3,0,6,0.00
2013-12-26,47,32,19,27,20,15,86,64,39,30.37,30.22,10,1,18,0.00
2013-12-27,52,34,22,25,22,19,90,66,29,30.44,30.32,5,0,8,0.00
2013-12-28,56,38,23,38,27,20,93,67,32,30.37,30.15,4,0,6,0.06
2013-12-29,52,44,39,46,40,38,98,89,72,30.15,29.67,12,1,22,1.15
2013-12-30,46,42,36,37,33,27,75,71,68,30.13,29.89,13,2,21,0.00
2013-12-31,44,37,27,29,22,17,76,55,35,30.32,30.09,14,2,26,0.00
2014-1-1,50,34,23,29,24,20,91,68,37,30.35,30.09,4,0,10,0.00
2014-1-2,39,33,26,36,29,21,97,86,65,30.09,29.60,9,1,18,0.12